sensor_id;sensor_type;location;lat;lon;timestamp;P1;durP1;ratioP1;P2;durP2;ratioP2
59145;SDS011;44928;53.074;6.646;2024-02-21T00:00:52;13.43;;;2.90;;
59145;SDS011;44928;53.074;6.646;2024-02-21T00:03:18;14.43;;;2.75;;
59145;SDS011;44928;53.074;6.646;2024-02-21T00:05:45;12.45;;;2.53;;
59145;SDS011;44928;53.074;6.646;2024-02-21T00:08:11;13.15;;;2.75;;
59145;SDS011;44928;53.074;6.646;2024-02-21T00:10:36;11.02;;;2.67;;
59145;SDS011;44928;53.074;6.646;2024-02-21T00:13:02;11.23;;;2.53;;
59145;SDS011;44928;53.074;6.646;2024-02-21T00:15:28;12.63;;;2.55;;
59145;SDS011;44928;53.074;6.646;2024-02-21T00:17:54;15.35;;;3.53;;
59145;SDS011;44928;53.074;6.646;2024-02-21T00:20:20;14.55;;;2.55;;
59145;SDS011;44928;53.074;6.646;2024-02-21T00:22:46;11.68;;;2.40;;
59145;SDS011;44928;53.074;6.646;2024-02-21T00:25:11;13.50;;;3.35;;
59145;SDS011;44928;53.074;6.646;2024-02-21T00:27:37;11.82;;;2.45;;
59145;SDS011;44928;53.074;6.646;2024-02-21T00:30:07;12.00;;;2.75;;
59145;SDS011;44928;53.074;6.646;2024-02-21T00:32:33;13.13;;;2.55;;
59145;SDS011;44928;53.074;6.646;2024-02-21T00:34:59;11.25;;;2.78;;
59145;SDS011;44928;53.074;6.646;2024-02-21T00:37:26;13.07;;;2.80;;
59145;SDS011;44928;53.074;6.646;2024-02-21T00:39:53;13.07;;;2.45;;
59145;SDS011;44928;53.074;6.646;2024-02-21T00:42:19;11.38;;;3.03;;
59145;SDS011;44928;53.074;6.646;2024-02-21T00:44:46;14.93;;;3.08;;
59145;SDS011;44928;53.074;6.646;2024-02-21T00:47:12;10.75;;;2.25;;
59145;SDS011;44928;53.074;6.646;2024-02-21T00:49:38;15.82;;;3.50;;
59145;SDS011;44928;53.074;6.646;2024-02-21T00:52:03;15.23;;;3.28;;
59145;SDS011;44928;53.074;6.646;2024-02-21T00:54:29;12.15;;;2.78;;
59145;SDS011;44928;53.074;6.646;2024-02-21T00:56:55;12.45;;;3.05;;
59145;SDS011;44928;53.074;6.646;2024-02-21T00:59:21;13.25;;;2.80;;
59145;SDS011;44928;53.074;6.646;2024-02-21T01:01:47;11.10;;;2.80;;
59145;SDS011;44928;53.074;6.646;2024-02-21T01:04:12;13.52;;;2.80;;
59145;SDS011;44928;53.074;6.646;2024-02-21T01:06:38;14.60;;;2.90;;
59145;SDS011;44928;53.074;6.646;2024-02-21T01:09:07;15.10;;;2.70;;
59145;SDS011;44928;53.074;6.646;2024-02-21T01:11:33;14.57;;;2.78;;
59145;SDS011;44928;53.074;6.646;2024-02-21T01:13:59;12.68;;;2.83;;
59145;SDS011;44928;53.074;6.646;2024-02-21T01:16:25;15.23;;;3.33;;
59145;SDS011;44928;53.074;6.646;2024-02-21T01:18:51;10.30;;;2.58;;
59145;SDS011;44928;53.074;6.646;2024-02-21T01:21:17;14.13;;;3.78;;
59145;SDS011;44928;53.074;6.646;2024-02-21T01:23:42;12.55;;;3.45;;
59145;SDS011;44928;53.074;6.646;2024-02-21T01:26:08;11.02;;;2.35;;
59145;SDS011;44928;53.074;6.646;2024-02-21T01:28:38;12.52;;;2.90;;
59145;SDS011;44928;53.074;6.646;2024-02-21T01:31:03;14.35;;;2.92;;
59145;SDS011;44928;53.074;6.646;2024-02-21T01:33:29;16.85;;;3.33;;
59145;SDS011;44928;53.074;6.646;2024-02-21T01:36:00;10.60;;;2.35;;
59145;SDS011;44928;53.074;6.646;2024-02-21T01:38:27;14.43;;;2.75;;
59145;SDS011;44928;53.074;6.646;2024-02-21T01:40:53;13.88;;;2.92;;
59145;SDS011;44928;53.074;6.646;2024-02-21T01:43:20;16.92;;;3.17;;
59145;SDS011;44928;53.074;6.646;2024-02-21T01:45:46;14.77;;;3.30;;
59145;SDS011;44928;53.074;6.646;2024-02-21T01:48:33;12.20;;;3.33;;
59145;SDS011;44928;53.074;6.646;2024-02-21T01:51:01;10.80;;;2.95;;
59145;SDS011;44928;53.074;6.646;2024-02-21T01:53:30;14.57;;;3.55;;
59145;SDS011;44928;53.074;6.646;2024-02-21T01:55:59;11.65;;;3.58;;
59145;SDS011;44928;53.074;6.646;2024-02-21T01:58:25;16.00;;;3.17;;
59145;SDS011;44928;53.074;6.646;2024-02-21T02:00:53;14.95;;;3.42;;
59145;SDS011;44928;53.074;6.646;2024-02-21T02:03:21;12.73;;;3.05;;
59145;SDS011;44928;53.074;6.646;2024-02-21T02:05:48;11.02;;;3.03;;
59145;SDS011;44928;53.074;6.646;2024-02-21T02:08:14;11.18;;;2.78;;
59145;SDS011;44928;53.074;6.646;2024-02-21T02:10:41;12.45;;;3.65;;
59145;SDS011;44928;53.074;6.646;2024-02-21T02:13:08;13.98;;;3.67;;
59145;SDS011;44928;53.074;6.646;2024-02-21T02:15:41;14.05;;;3.50;;
59145;SDS011;44928;53.074;6.646;2024-02-21T02:18:11;11.40;;;4.05;;
59145;SDS011;44928;53.074;6.646;2024-02-21T02:20:37;15.10;;;4.18;;
59145;SDS011;44928;53.074;6.646;2024-02-21T02:23:07;15.75;;;3.90;;
59145;SDS011;44928;53.074;6.646;2024-02-21T02:25:35;11.55;;;3.53;;
59145;SDS011;44928;53.074;6.646;2024-02-21T02:28:02;13.35;;;4.57;;
59145;SDS011;44928;53.074;6.646;2024-02-21T02:30:31;12.77;;;3.80;;
59145;SDS011;44928;53.074;6.646;2024-02-21T02:32:58;13.52;;;4.20;;
59145;SDS011;44928;53.074;6.646;2024-02-21T02:35:24;15.45;;;4.60;;
59145;SDS011;44928;53.074;6.646;2024-02-21T02:37:50;18.65;;;3.58;;
59145;SDS011;44928;53.074;6.646;2024-02-21T02:40:16;12.55;;;3.80;;
59145;SDS011;44928;53.074;6.646;2024-02-21T02:42:45;15.68;;;4.47;;
59145;SDS011;44928;53.074;6.646;2024-02-21T02:45:12;13.02;;;4.05;;
59145;SDS011;44928;53.074;6.646;2024-02-21T02:47:39;19.10;;;5.03;;
59145;SDS011;44928;53.074;6.646;2024-02-21T02:50:05;14.48;;;4.32;;
59145;SDS011;44928;53.074;6.646;2024-02-21T02:52:32;13.60;;;3.83;;
59145;SDS011;44928;53.074;6.646;2024-02-21T02:54:57;18.67;;;4.90;;
59145;SDS011;44928;53.074;6.646;2024-02-21T02:57:23;11.68;;;4.15;;
59145;SDS011;44928;53.074;6.646;2024-02-21T02:59:49;16.77;;;4.78;;
59145;SDS011;44928;53.074;6.646;2024-02-21T03:02:16;17.38;;;4.30;;
59145;SDS011;44928;53.074;6.646;2024-02-21T03:04:42;16.05;;;4.13;;
59145;SDS011;44928;53.074;6.646;2024-02-21T03:07:09;17.33;;;4.68;;
59145;SDS011;44928;53.074;6.646;2024-02-21T03:09:36;19.67;;;4.95;;
59145;SDS011;44928;53.074;6.646;2024-02-21T03:12:03;13.77;;;4.35;;
59145;SDS011;44928;53.074;6.646;2024-02-21T03:14:29;17.20;;;4.72;;
59145;SDS011;44928;53.074;6.646;2024-02-21T03:16:56;17.20;;;5.03;;
59145;SDS011;44928;53.074;6.646;2024-02-21T03:19:23;14.23;;;4.80;;
59145;SDS011;44928;53.074;6.646;2024-02-21T03:21:49;13.35;;;4.82;;
59145;SDS011;44928;53.074;6.646;2024-02-21T03:24:15;16.55;;;5.25;;
59145;SDS011;44928;53.074;6.646;2024-02-21T03:26:41;15.18;;;5.03;;
59145;SDS011;44928;53.074;6.646;2024-02-21T03:29:07;17.20;;;4.80;;
59145;SDS011;44928;53.074;6.646;2024-02-21T03:31:34;20.02;;;5.10;;
59145;SDS011;44928;53.074;6.646;2024-02-21T03:34:00;16.05;;;5.25;;
59145;SDS011;44928;53.074;6.646;2024-02-21T03:36:26;15.95;;;4.97;;
59145;SDS011;44928;53.074;6.646;2024-02-21T03:38:52;16.83;;;5.75;;
59145;SDS011;44928;53.074;6.646;2024-02-21T03:41:19;20.30;;;5.90;;
59145;SDS011;44928;53.074;6.646;2024-02-21T03:43:44;20.52;;;5.88;;
59145;SDS011;44928;53.074;6.646;2024-02-21T03:46:10;19.02;;;5.60;;
59145;SDS011;44928;53.074;6.646;2024-02-21T03:48:36;23.67;;;5.53;;
59145;SDS011;44928;53.074;6.646;2024-02-21T03:51:02;20.83;;;5.20;;
59145;SDS011;44928;53.074;6.646;2024-02-21T03:53:28;19.60;;;5.40;;
59145;SDS011;44928;53.074;6.646;2024-02-21T03:55:54;19.02;;;5.80;;
59145;SDS011;44928;53.074;6.646;2024-02-21T03:58:20;17.30;;;4.80;;
59145;SDS011;44928;53.074;6.646;2024-02-21T04:00:46;20.63;;;5.35;;
59145;SDS011;44928;53.074;6.646;2024-02-21T04:03:12;20.85;;;5.43;;
59145;SDS011;44928;53.074;6.646;2024-02-21T04:05:38;18.77;;;5.60;;
59145;SDS011;44928;53.074;6.646;2024-02-21T04:08:07;17.80;;;5.10;;
59145;SDS011;44928;53.074;6.646;2024-02-21T04:10:33;13.40;;;4.68;;
59145;SDS011;44928;53.074;6.646;2024-02-21T04:12:59;14.52;;;5.05;;
59145;SDS011;44928;53.074;6.646;2024-02-21T04:15:24;17.30;;;5.63;;
59145;SDS011;44928;53.074;6.646;2024-02-21T04:17:50;16.65;;;5.30;;
59145;SDS011;44928;53.074;6.646;2024-02-21T04:20:18;15.15;;;4.88;;
59145;SDS011;44928;53.074;6.646;2024-02-21T04:22:43;14.07;;;4.97;;
59145;SDS011;44928;53.074;6.646;2024-02-21T04:25:12;16.55;;;5.63;;
59145;SDS011;44928;53.074;6.646;2024-02-21T04:27:38;19.30;;;5.38;;
59145;SDS011;44928;53.074;6.646;2024-02-21T04:30:04;17.13;;;5.35;;
59145;SDS011;44928;53.074;6.646;2024-02-21T04:32:31;21.55;;;6.10;;
59145;SDS011;44928;53.074;6.646;2024-02-21T04:34:57;15.25;;;5.20;;
59145;SDS011;44928;53.074;6.646;2024-02-21T04:37:23;17.58;;;5.35;;
59145;SDS011;44928;53.074;6.646;2024-02-21T04:39:49;20.20;;;6.15;;
59145;SDS011;44928;53.074;6.646;2024-02-21T04:42:16;17.48;;;5.47;;
59145;SDS011;44928;53.074;6.646;2024-02-21T04:44:42;19.05;;;6.55;;
59145;SDS011;44928;53.074;6.646;2024-02-21T04:47:08;16.63;;;5.78;;
59145;SDS011;44928;53.074;6.646;2024-02-21T04:49:34;17.75;;;5.60;;
59145;SDS011;44928;53.074;6.646;2024-02-21T04:52:00;17.58;;;5.60;;
59145;SDS011;44928;53.074;6.646;2024-02-21T04:54:26;22.58;;;6.15;;
59145;SDS011;44928;53.074;6.646;2024-02-21T04:56:52;18.90;;;5.63;;
59145;SDS011;44928;53.074;6.646;2024-02-21T04:59:18;19.98;;;6.20;;
59145;SDS011;44928;53.074;6.646;2024-02-21T05:01:44;19.13;;;5.53;;
59145;SDS011;44928;53.074;6.646;2024-02-21T05:04:10;17.88;;;5.47;;
59145;SDS011;44928;53.074;6.646;2024-02-21T05:06:39;17.92;;;5.35;;
59145;SDS011;44928;53.074;6.646;2024-02-21T05:09:05;15.35;;;4.80;;
59145;SDS011;44928;53.074;6.646;2024-02-21T05:11:31;17.92;;;5.93;;
59145;SDS011;44928;53.074;6.646;2024-02-21T05:13:57;16.23;;;5.63;;
59145;SDS011;44928;53.074;6.646;2024-02-21T05:16:23;16.92;;;5.65;;
59145;SDS011;44928;53.074;6.646;2024-02-21T05:18:50;15.52;;;5.45;;
59145;SDS011;44928;53.074;6.646;2024-02-21T05:21:16;19.35;;;5.05;;
59145;SDS011;44928;53.074;6.646;2024-02-21T05:23:41;17.02;;;4.60;;
59145;SDS011;44928;53.074;6.646;2024-02-21T05:26:07;16.65;;;5.53;;
59145;SDS011;44928;53.074;6.646;2024-02-21T05:28:34;20.77;;;5.18;;
59145;SDS011;44928;53.074;6.646;2024-02-21T05:31:00;17.13;;;5.45;;
59145;SDS011;44928;53.074;6.646;2024-02-21T05:33:26;22.92;;;6.25;;
59145;SDS011;44928;53.074;6.646;2024-02-21T05:35:52;17.60;;;5.32;;
59145;SDS011;44928;53.074;6.646;2024-02-21T05:38:18;18.05;;;5.40;;
59145;SDS011;44928;53.074;6.646;2024-02-21T05:40:47;19.27;;;6.03;;
59145;SDS011;44928;53.074;6.646;2024-02-21T05:43:13;23.33;;;6.65;;
59145;SDS011;44928;53.074;6.646;2024-02-21T05:45:39;15.15;;;5.63;;
59145;SDS011;44928;53.074;6.646;2024-02-21T05:48:04;22.88;;;6.57;;
59145;SDS011;44928;53.074;6.646;2024-02-21T05:50:30;22.00;;;6.85;;
59145;SDS011;44928;53.074;6.646;2024-02-21T05:52:57;19.60;;;6.38;;
59145;SDS011;44928;53.074;6.646;2024-02-21T05:55:23;19.35;;;6.85;;
59145;SDS011;44928;53.074;6.646;2024-02-21T05:57:49;22.38;;;7.60;;
59145;SDS011;44928;53.074;6.646;2024-02-21T06:00:15;19.25;;;6.60;;
59145;SDS011;44928;53.074;6.646;2024-02-21T06:02:41;26.27;;;6.85;;
59145;SDS011;44928;53.074;6.646;2024-02-21T06:05:08;25.50;;;7.15;;
59145;SDS011;44928;53.074;6.646;2024-02-21T06:07:34;20.50;;;7.05;;
59145;SDS011;44928;53.074;6.646;2024-02-21T06:10:00;25.60;;;7.65;;
59145;SDS011;44928;53.074;6.646;2024-02-21T06:12:29;23.67;;;7.15;;
59145;SDS011;44928;53.074;6.646;2024-02-21T06:14:55;17.90;;;6.72;;
59145;SDS011;44928;53.074;6.646;2024-02-21T06:17:20;22.55;;;6.88;;
59145;SDS011;44928;53.074;6.646;2024-02-21T06:19:46;19.77;;;7.00;;
59145;SDS011;44928;53.074;6.646;2024-02-21T06:22:12;24.98;;;7.47;;
59145;SDS011;44928;53.074;6.646;2024-02-21T06:24:38;24.58;;;7.82;;
59145;SDS011;44928;53.074;6.646;2024-02-21T06:27:04;19.13;;;6.75;;
59145;SDS011;44928;53.074;6.646;2024-02-21T06:29:33;25.10;;;7.38;;
59145;SDS011;44928;53.074;6.646;2024-02-21T06:32:00;21.33;;;7.05;;
59145;SDS011;44928;53.074;6.646;2024-02-21T06:34:26;22.05;;;7.38;;
59145;SDS011;44928;53.074;6.646;2024-02-21T06:36:52;22.73;;;7.38;;
59145;SDS011;44928;53.074;6.646;2024-02-21T06:39:17;21.38;;;7.78;;
59145;SDS011;44928;53.074;6.646;2024-02-21T06:41:43;22.15;;;8.88;;
59145;SDS011;44928;53.074;6.646;2024-02-21T06:44:09;20.67;;;7.80;;
59145;SDS011;44928;53.074;6.646;2024-02-21T06:46:35;23.73;;;8.25;;
59145;SDS011;44928;53.074;6.646;2024-02-21T06:49:01;26.17;;;8.82;;
59145;SDS011;44928;53.074;6.646;2024-02-21T06:51:30;29.08;;;9.85;;
59145;SDS011;44928;53.074;6.646;2024-02-21T06:53:57;26.27;;;8.68;;
59145;SDS011;44928;53.074;6.646;2024-02-21T06:56:25;32.30;;;10.45;;
59145;SDS011;44928;53.074;6.646;2024-02-21T06:58:57;30.08;;;8.90;;
59145;SDS011;44928;53.074;6.646;2024-02-21T07:01:23;28.45;;;8.82;;
59145;SDS011;44928;53.074;6.646;2024-02-21T07:03:50;31.33;;;10.18;;
59145;SDS011;44928;53.074;6.646;2024-02-21T07:06:15;24.60;;;7.25;;
59145;SDS011;44928;53.074;6.646;2024-02-21T07:08:41;30.25;;;7.78;;
59145;SDS011;44928;53.074;6.646;2024-02-21T07:11:07;29.67;;;7.93;;
59145;SDS011;44928;53.074;6.646;2024-02-21T07:13:33;29.15;;;6.78;;
59145;SDS011;44928;53.074;6.646;2024-02-21T07:15:59;24.30;;;6.45;;
59145;SDS011;44928;53.074;6.646;2024-02-21T07:18:24;22.90;;;6.20;;
59145;SDS011;44928;53.074;6.646;2024-02-21T07:20:51;22.92;;;5.50;;
59145;SDS011;44928;53.074;6.646;2024-02-21T07:23:17;23.25;;;5.72;;
59145;SDS011;44928;53.074;6.646;2024-02-21T07:25:44;20.17;;;6.30;;
59145;SDS011;44928;53.074;6.646;2024-02-21T07:28:09;22.08;;;6.22;;
59145;SDS011;44928;53.074;6.646;2024-02-21T07:30:35;18.67;;;5.35;;
59145;SDS011;44928;53.074;6.646;2024-02-21T07:33:01;23.55;;;6.72;;
59145;SDS011;44928;53.074;6.646;2024-02-21T07:35:28;18.05;;;5.80;;
59145;SDS011;44928;53.074;6.646;2024-02-21T07:37:53;19.98;;;6.28;;
59145;SDS011;44928;53.074;6.646;2024-02-21T07:40:19;17.00;;;6.03;;
59145;SDS011;44928;53.074;6.646;2024-02-21T07:42:45;17.67;;;5.90;;
59145;SDS011;44928;53.074;6.646;2024-02-21T07:45:11;21.48;;;5.68;;
59145;SDS011;44928;53.074;6.646;2024-02-21T07:47:37;18.27;;;5.70;;
59145;SDS011;44928;53.074;6.646;2024-02-21T07:50:03;14.68;;;5.80;;
59145;SDS011;44928;53.074;6.646;2024-02-21T07:52:29;19.50;;;5.60;;
59145;SDS011;44928;53.074;6.646;2024-02-21T07:54:55;20.05;;;6.20;;
59145;SDS011;44928;53.074;6.646;2024-02-21T07:57:21;17.88;;;5.57;;
59145;SDS011;44928;53.074;6.646;2024-02-21T07:59:47;19.60;;;4.82;;
59145;SDS011;44928;53.074;6.646;2024-02-21T08:02:14;14.82;;;4.60;;
59145;SDS011;44928;53.074;6.646;2024-02-21T08:04:40;14.48;;;5.00;;
59145;SDS011;44928;53.074;6.646;2024-02-21T08:07:06;16.00;;;5.95;;
59145;SDS011;44928;53.074;6.646;2024-02-21T08:09:32;18.35;;;5.43;;
59145;SDS011;44928;53.074;6.646;2024-02-21T08:11:58;16.38;;;5.25;;
59145;SDS011;44928;53.074;6.646;2024-02-21T08:14:24;19.70;;;5.55;;
59145;SDS011;44928;53.074;6.646;2024-02-21T08:16:50;19.15;;;5.13;;
59145;SDS011;44928;53.074;6.646;2024-02-21T08:19:18;17.48;;;5.82;;
59145;SDS011;44928;53.074;6.646;2024-02-21T08:21:44;15.85;;;4.72;;
59145;SDS011;44928;53.074;6.646;2024-02-21T08:24:12;14.85;;;5.00;;
59145;SDS011;44928;53.074;6.646;2024-02-21T08:26:40;18.58;;;6.32;;
59145;SDS011;44928;53.074;6.646;2024-02-21T08:29:07;18.50;;;7.22;;
59145;SDS011;44928;53.074;6.646;2024-02-21T08:31:33;15.38;;;7.38;;
59145;SDS011;44928;53.074;6.646;2024-02-21T08:34:00;19.13;;;8.65;;
59145;SDS011;44928;53.074;6.646;2024-02-21T08:36:32;21.10;;;9.82;;
59145;SDS011;44928;53.074;6.646;2024-02-21T08:41:26;19.60;;;9.35;;
59145;SDS011;44928;53.074;6.646;2024-02-21T08:43:52;19.38;;;10.50;;
59145;SDS011;44928;53.074;6.646;2024-02-21T08:46:21;23.90;;;11.25;;
59145;SDS011;44928;53.074;6.646;2024-02-21T08:48:49;22.92;;;10.35;;
59145;SDS011;44928;53.074;6.646;2024-02-21T08:51:18;21.33;;;10.43;;
59145;SDS011;44928;53.074;6.646;2024-02-21T08:53:45;22.45;;;11.48;;
59145;SDS011;44928;53.074;6.646;2024-02-21T08:56:11;20.63;;;10.73;;
59145;SDS011;44928;53.074;6.646;2024-02-21T08:58:38;18.45;;;10.70;;
59145;SDS011;44928;53.074;6.646;2024-02-21T09:01:05;19.45;;;11.43;;
59145;SDS011;44928;53.074;6.646;2024-02-21T09:03:37;17.90;;;10.63;;
59145;SDS011;44928;53.074;6.646;2024-02-21T09:06:06;23.58;;;10.90;;
59145;SDS011;44928;53.074;6.646;2024-02-21T09:08:33;20.13;;;11.40;;
59145;SDS011;44928;53.074;6.646;2024-02-21T09:10:59;19.05;;;10.80;;
59145;SDS011;44928;53.074;6.646;2024-02-21T09:13:26;18.40;;;10.27;;
59145;SDS011;44928;53.074;6.646;2024-02-21T09:15:52;20.17;;;10.85;;
59145;SDS011;44928;53.074;6.646;2024-02-21T09:18:18;23.00;;;11.90;;
59145;SDS011;44928;53.074;6.646;2024-02-21T09:20:44;19.60;;;11.13;;
59145;SDS011;44928;53.074;6.646;2024-02-21T09:23:10;21.02;;;11.70;;
59145;SDS011;44928;53.074;6.646;2024-02-21T09:25:36;20.98;;;11.38;;
59145;SDS011;44928;53.074;6.646;2024-02-21T09:28:03;19.40;;;11.75;;
59145;SDS011;44928;53.074;6.646;2024-02-21T09:30:31;20.70;;;11.60;;
59145;SDS011;44928;53.074;6.646;2024-02-21T09:32:57;21.70;;;12.18;;
59145;SDS011;44928;53.074;6.646;2024-02-21T09:35:27;20.45;;;11.48;;
59145;SDS011;44928;53.074;6.646;2024-02-21T09:37:54;17.45;;;11.02;;
59145;SDS011;44928;53.074;6.646;2024-02-21T09:40:20;21.20;;;11.25;;
59145;SDS011;44928;53.074;6.646;2024-02-21T09:42:47;17.77;;;10.68;;
59145;SDS011;44928;53.074;6.646;2024-02-21T09:45:20;20.20;;;12.40;;
59145;SDS011;44928;53.074;6.646;2024-02-21T09:50:28;20.15;;;12.10;;
59145;SDS011;44928;53.074;6.646;2024-02-21T09:52:56;21.05;;;12.98;;
59145;SDS011;44928;53.074;6.646;2024-02-21T09:55:24;21.00;;;13.18;;
59145;SDS011;44928;53.074;6.646;2024-02-21T09:57:52;19.38;;;12.23;;
59145;SDS011;44928;53.074;6.646;2024-02-21T10:00:19;22.23;;;13.15;;
59145;SDS011;44928;53.074;6.646;2024-02-21T10:02:47;22.60;;;12.80;;
59145;SDS011;44928;53.074;6.646;2024-02-21T10:05:14;23.10;;;13.77;;
59145;SDS011;44928;53.074;6.646;2024-02-21T10:07:41;21.05;;;13.70;;
59145;SDS011;44928;53.074;6.646;2024-02-21T10:10:07;22.40;;;12.65;;
59145;SDS011;44928;53.074;6.646;2024-02-21T10:12:33;21.33;;;12.98;;
59145;SDS011;44928;53.074;6.646;2024-02-21T10:15:05;22.98;;;12.65;;
59145;SDS011;44928;53.074;6.646;2024-02-21T10:17:32;21.33;;;12.73;;
59145;SDS011;44928;53.074;6.646;2024-02-21T10:20:10;21.98;;;12.77;;
59145;SDS011;44928;53.074;6.646;2024-02-21T10:22:37;21.88;;;12.82;;
59145;SDS011;44928;53.074;6.646;2024-02-21T10:25:13;23.17;;;15.30;;
59145;SDS011;44928;53.074;6.646;2024-02-21T10:27:40;22.23;;;13.82;;
59145;SDS011;44928;53.074;6.646;2024-02-21T10:30:12;21.98;;;13.52;;
59145;SDS011;44928;53.074;6.646;2024-02-21T10:32:49;21.98;;;13.95;;
59145;SDS011;44928;53.074;6.646;2024-02-21T10:35:27;21.95;;;13.35;;
59145;SDS011;44928;53.074;6.646;2024-02-21T10:37:58;23.35;;;12.93;;
59145;SDS011;44928;53.074;6.646;2024-02-21T10:40:26;20.40;;;12.93;;
59145;SDS011;44928;53.074;6.646;2024-02-21T10:42:58;19.85;;;13.65;;
59145;SDS011;44928;53.074;6.646;2024-02-21T10:45:29;24.08;;;14.68;;
59145;SDS011;44928;53.074;6.646;2024-02-21T10:48:06;22.73;;;12.95;;
59145;SDS011;44928;53.074;6.646;2024-02-21T10:50:36;19.98;;;12.32;;
59145;SDS011;44928;53.074;6.646;2024-02-21T10:53:29;19.00;;;12.75;;
59145;SDS011;44928;53.074;6.646;2024-02-21T10:56:47;17.98;;;12.15;;
59145;SDS011;44928;53.074;6.646;2024-02-21T10:59:07;19.30;;;12.70;;
59145;SDS011;44928;53.074;6.646;2024-02-21T11:01:33;19.95;;;11.75;;
59145;SDS011;44928;53.074;6.646;2024-02-21T11:04:04;22.95;;;13.07;;
59145;SDS011;44928;53.074;6.646;2024-02-21T11:06:34;18.67;;;11.90;;
59145;SDS011;44928;53.074;6.646;2024-02-21T11:09:06;18.65;;;12.52;;
59145;SDS011;44928;53.074;6.646;2024-02-21T11:11:39;18.38;;;11.82;;
59145;SDS011;44928;53.074;6.646;2024-02-21T11:14:09;18.98;;;11.32;;
59145;SDS011;44928;53.074;6.646;2024-02-21T11:16:37;19.33;;;10.80;;
59145;SDS011;44928;53.074;6.646;2024-02-21T11:19:05;17.40;;;10.63;;
59145;SDS011;44928;53.074;6.646;2024-02-21T11:21:36;17.83;;;10.60;;
59145;SDS011;44928;53.074;6.646;2024-02-21T11:26:29;21.92;;;10.77;;
59145;SDS011;44928;53.074;6.646;2024-02-21T11:28:57;19.08;;;11.35;;
59145;SDS011;44928;53.074;6.646;2024-02-21T11:31:37;15.40;;;9.98;;
59145;SDS011;44928;53.074;6.646;2024-02-21T11:34:07;17.50;;;9.77;;
59145;SDS011;44928;53.074;6.646;2024-02-21T11:36:34;18.08;;;9.32;;
59145;SDS011;44928;53.074;6.646;2024-02-21T11:39:03;17.05;;;8.90;;
59145;SDS011;44928;53.074;6.646;2024-02-21T11:41:30;17.58;;;8.43;;
59145;SDS011;44928;53.074;6.646;2024-02-21T11:43:56;15.23;;;8.18;;
59145;SDS011;44928;53.074;6.646;2024-02-21T11:46:22;17.23;;;8.27;;
59145;SDS011;44928;53.074;6.646;2024-02-21T11:48:48;15.65;;;8.13;;
59145;SDS011;44928;53.074;6.646;2024-02-21T11:51:26;16.42;;;8.32;;
59145;SDS011;44928;53.074;6.646;2024-02-21T11:53:55;14.02;;;7.43;;
59145;SDS011;44928;53.074;6.646;2024-02-21T11:56:20;13.65;;;7.45;;
59145;SDS011;44928;53.074;6.646;2024-02-21T11:58:48;14.75;;;7.28;;
59145;SDS011;44928;53.074;6.646;2024-02-21T12:01:14;15.88;;;7.28;;
59145;SDS011;44928;53.074;6.646;2024-02-21T12:03:41;14.82;;;7.35;;
59145;SDS011;44928;53.074;6.646;2024-02-21T12:06:14;16.80;;;8.98;;
59145;SDS011;44928;53.074;6.646;2024-02-21T12:08:44;15.77;;;9.20;;
59145;SDS011;44928;53.074;6.646;2024-02-21T12:11:19;16.27;;;9.63;;
59145;SDS011;44928;53.074;6.646;2024-02-21T12:13:47;18.17;;;9.48;;
59145;SDS011;44928;53.074;6.646;2024-02-21T12:16:34;14.63;;;7.38;;
59145;SDS011;44928;53.074;6.646;2024-02-21T12:19:04;15.07;;;8.07;;
59145;SDS011;44928;53.074;6.646;2024-02-21T12:21:30;13.15;;;6.50;;
59145;SDS011;44928;53.074;6.646;2024-02-21T12:24:00;14.15;;;7.25;;
59145;SDS011;44928;53.074;6.646;2024-02-21T12:26:40;12.77;;;6.50;;
59145;SDS011;44928;53.074;6.646;2024-02-21T12:29:06;14.68;;;6.80;;
59145;SDS011;44928;53.074;6.646;2024-02-21T12:31:35;13.55;;;7.00;;
59145;SDS011;44928;53.074;6.646;2024-02-21T12:34:02;15.38;;;7.57;;
59145;SDS011;44928;53.074;6.646;2024-02-21T12:36:29;13.52;;;6.95;;
59145;SDS011;44928;53.074;6.646;2024-02-21T12:38:55;14.93;;;7.13;;
59145;SDS011;44928;53.074;6.646;2024-02-21T12:41:21;13.40;;;6.43;;
59145;SDS011;44928;53.074;6.646;2024-02-21T12:43:47;14.68;;;7.32;;
59145;SDS011;44928;53.074;6.646;2024-02-21T12:46:13;13.88;;;7.75;;
59145;SDS011;44928;53.074;6.646;2024-02-21T12:48:38;12.50;;;6.55;;
59145;SDS011;44928;53.074;6.646;2024-02-21T12:51:05;14.30;;;6.68;;
59145;SDS011;44928;53.074;6.646;2024-02-21T12:53:31;14.52;;;6.72;;
59145;SDS011;44928;53.074;6.646;2024-02-21T12:55:57;12.35;;;6.15;;
59145;SDS011;44928;53.074;6.646;2024-02-21T12:58:22;13.63;;;6.68;;
59145;SDS011;44928;53.074;6.646;2024-02-21T13:00:48;12.32;;;6.43;;
59145;SDS011;44928;53.074;6.646;2024-02-21T13:03:14;13.32;;;6.55;;
59145;SDS011;44928;53.074;6.646;2024-02-21T13:05:40;13.32;;;5.90;;
59145;SDS011;44928;53.074;6.646;2024-02-21T13:08:06;12.55;;;5.72;;
59145;SDS011;44928;53.074;6.646;2024-02-21T13:10:32;11.40;;;6.07;;
59145;SDS011;44928;53.074;6.646;2024-02-21T13:12:59;10.95;;;5.68;;
59145;SDS011;44928;53.074;6.646;2024-02-21T13:15:26;11.10;;;5.85;;
59145;SDS011;44928;53.074;6.646;2024-02-21T13:17:53;11.60;;;5.50;;
59145;SDS011;44928;53.074;6.646;2024-02-21T13:20:19;10.77;;;5.10;;
59145;SDS011;44928;53.074;6.646;2024-02-21T13:22:46;9.43;;;5.13;;
59145;SDS011;44928;53.074;6.646;2024-02-21T13:25:12;10.27;;;4.97;;
59145;SDS011;44928;53.074;6.646;2024-02-21T13:27:43;10.77;;;5.00;;
59145;SDS011;44928;53.074;6.646;2024-02-21T13:30:09;10.10;;;4.72;;
59145;SDS011;44928;53.074;6.646;2024-02-21T13:32:36;10.80;;;4.95;;
59145;SDS011;44928;53.074;6.646;2024-02-21T13:35:02;9.15;;;4.65;;
59145;SDS011;44928;53.074;6.646;2024-02-21T13:37:28;10.15;;;4.53;;
59145;SDS011;44928;53.074;6.646;2024-02-21T13:39:54;9.23;;;4.72;;
59145;SDS011;44928;53.074;6.646;2024-02-21T13:42:21;7.45;;;3.80;;
59145;SDS011;44928;53.074;6.646;2024-02-21T13:44:47;8.93;;;4.30;;
59145;SDS011;44928;53.074;6.646;2024-02-21T13:47:13;8.95;;;4.05;;
59145;SDS011;44928;53.074;6.646;2024-02-21T13:49:40;9.77;;;4.63;;
59145;SDS011;44928;53.074;6.646;2024-02-21T13:52:06;10.13;;;4.25;;
59145;SDS011;44928;53.074;6.646;2024-02-21T13:54:32;9.60;;;4.07;;
59145;SDS011;44928;53.074;6.646;2024-02-21T13:56:58;8.43;;;3.95;;
59145;SDS011;44928;53.074;6.646;2024-02-21T13:59:23;9.10;;;4.15;;
59145;SDS011;44928;53.074;6.646;2024-02-21T14:01:51;8.15;;;4.10;;
59145;SDS011;44928;53.074;6.646;2024-02-21T14:04:17;9.30;;;4.38;;
59145;SDS011;44928;53.074;6.646;2024-02-21T14:06:43;9.13;;;3.90;;
59145;SDS011;44928;53.074;6.646;2024-02-21T14:09:09;9.38;;;4.40;;
59145;SDS011;44928;53.074;6.646;2024-02-21T14:11:36;9.05;;;4.47;;
59145;SDS011;44928;53.074;6.646;2024-02-21T14:14:03;9.20;;;4.10;;
59145;SDS011;44928;53.074;6.646;2024-02-21T14:16:30;10.55;;;4.50;;
59145;SDS011;44928;53.074;6.646;2024-02-21T14:18:56;9.05;;;4.10;;
59145;SDS011;44928;53.074;6.646;2024-02-21T14:21:21;11.98;;;4.13;;
59145;SDS011;44928;53.074;6.646;2024-02-21T14:23:47;9.90;;;4.38;;
59145;SDS011;44928;53.074;6.646;2024-02-21T14:26:13;8.93;;;4.57;;
59145;SDS011;44928;53.074;6.646;2024-02-21T14:28:42;10.90;;;5.30;;
59145;SDS011;44928;53.074;6.646;2024-02-21T14:31:07;9.68;;;4.45;;
59145;SDS011;44928;53.074;6.646;2024-02-21T14:33:36;9.23;;;4.95;;
59145;SDS011;44928;53.074;6.646;2024-02-21T14:36:02;11.70;;;4.85;;
59145;SDS011;44928;53.074;6.646;2024-02-21T14:38:29;9.02;;;4.32;;
59145;SDS011;44928;53.074;6.646;2024-02-21T14:40:55;8.57;;;4.47;;